sensor_id;sensor_type;location;lat;lon;timestamp;pressure;altitude;pressure_sealevel;temperature;humidity
64192;BME280;50497;50.720;-2.084;2024-01-15T00:00:13;101710.00;;;2.68;100.00
64192;BME280;50497;50.720;-2.084;2024-01-15T00:02:39;101695.03;;;2.67;100.00
64192;BME280;50497;50.720;-2.084;2024-01-15T00:05:04;101698.59;;;2.71;100.00
64192;BME280;50497;50.720;-2.084;2024-01-15T00:07:30;101704.75;;;2.76;100.00
64192;BME280;50497;50.720;-2.084;2024-01-15T00:09:55;101695.06;;;2.80;100.00
64192;BME280;50497;50.720;-2.084;2024-01-15T00:12:21;101698.56;;;2.83;100.00
64192;BME280;50497;50.720;-2.084;2024-01-15T00:14:46;101691.50;;;2.84;100.00
64192;BME280;50497;50.720;-2.084;2024-01-15T00:17:12;101702.97;;;2.81;100.00
64192;BME280;50497;50.720;-2.084;2024-01-15T00:19:38;101695.03;;;2.70;100.00
64192;BME280;50497;50.720;-2.084;2024-01-15T00:22:03;101688.88;;;2.71;100.00
64192;BME280;50497;50.720;-2.084;2024-01-15T00:24:29;101669.50;;;2.62;100.00
64192;BME280;50497;50.720;-2.084;2024-01-15T00:26:54;101688.88;;;2.74;100.00
64192;BME280;50497;50.720;-2.084;2024-01-15T00:29:20;101683.59;;;2.73;100.00
64192;BME280;50497;50.720;-2.084;2024-01-15T00:31:47;101659.81;;;2.62;100.00
64192;BME280;50497;50.720;-2.084;2024-01-15T00:34:12;101651.91;;;2.59;100.00
64192;BME280;50497;50.720;-2.084;2024-01-15T00:36:38;101680.94;;;2.68;100.00
64192;BME280;50497;50.720;-2.084;2024-01-15T00:39:03;101680.09;;;2.74;100.00
64192;BME280;50497;50.720;-2.084;2024-01-15T00:41:30;101680.97;;;2.74;100.00
64192;BME280;50497;50.720;-2.084;2024-01-15T00:43:56;101671.25;;;2.69;100.00
64192;BME280;50497;50.720;-2.084;2024-01-15T00:46:21;101681.84;;;2.83;100.00
64192;BME280;50497;50.720;-2.084;2024-01-15T00:48:47;101658.94;;;2.74;100.00
64192;BME280;50497;50.720;-2.084;2024-01-15T00:51:12;101658.94;;;2.71;100.00
64192;BME280;50497;50.720;-2.084;2024-01-15T00:53:38;101664.22;;;2.71;100.00
64192;BME280;50497;50.720;-2.084;2024-01-15T00:56:04;101648.38;;;2.62;100.00
64192;BME280;50497;50.720;-2.084;2024-01-15T00:58:29;101667.72;;;2.82;100.00
64192;BME280;50497;50.720;-2.084;2024-01-15T01:00:55;101668.59;;;2.89;100.00
64192;BME280;50497;50.720;-2.084;2024-01-15T01:03:20;101672.16;;;2.89;100.00
64192;BME280;50497;50.720;-2.084;2024-01-15T01:05:48;101665.97;;;2.89;100.00
64192;BME280;50497;50.720;-2.084;2024-01-15T01:08:14;101666.84;;;2.88;100.00
64192;BME280;50497;50.720;-2.084;2024-01-15T01:10:39;101662.44;;;2.88;100.00
64192;BME280;50497;50.720;-2.084;2024-01-15T01:13:05;101652.75;;;2.89;100.00
64192;BME280;50497;50.720;-2.084;2024-01-15T01:15:30;101651.91;;;2.79;100.00
64192;BME280;50497;50.720;-2.084;2024-01-15T01:17:56;101657.16;;;2.84;100.00
64192;BME280;50497;50.720;-2.084;2024-01-15T01:20:21;101628.97;;;2.67;100.00
64192;BME280;50497;50.720;-2.084;2024-01-15T01:22:46;101651.00;;;2.80;100.00
64192;BME280;50497;50.720;-2.084;2024-01-15T01:25:12;101655.41;;;2.78;100.00
64192;BME280;50497;50.720;-2.084;2024-01-15T01:27:37;101651.00;;;2.75;100.00
64192;BME280;50497;50.720;-2.084;2024-01-15T01:30:03;101657.19;;;2.73;100.00
64192;BME280;50497;50.720;-2.084;2024-01-15T01:32:28;101643.94;;;2.61;100.00
64192;BME280;50497;50.720;-2.084;2024-01-15T01:34:54;101649.25;;;2.68;100.00
64192;BME280;50497;50.720;-2.084;2024-01-15T01:37:19;101651.00;;;2.78;100.00
64192;BME280;50497;50.720;-2.084;2024-01-15T01:39:45;101656.31;;;2.69;100.00
64192;BME280;50497;50.720;-2.084;2024-01-15T01:42:11;101651.00;;;2.75;100.00
64192;BME280;50497;50.720;-2.084;2024-01-15T01:44:37;101648.34;;;2.80;100.00
64192;BME280;50497;50.720;-2.084;2024-01-15T01:47:03;101636.91;;;2.80;100.00
64192;BME280;50497;50.720;-2.084;2024-01-15T01:49:29;101646.59;;;2.74;100.00
64192;BME280;50497;50.720;-2.084;2024-01-15T01:51:59;101645.69;;;2.78;100.00
64192;BME280;50497;50.720;-2.084;2024-01-15T01:54:29;101643.97;;;2.77;100.00
64192;BME280;50497;50.720;-2.084;2024-01-15T01:56:55;101642.19;;;2.76;100.00
64192;BME280;50497;50.720;-2.084;2024-01-15T01:59:22;101646.59;;;2.70;100.00
64192;BME280;50497;50.720;-2.084;2024-01-15T02:01:49;101618.41;;;2.55;100.00
64192;BME280;50497;50.720;-2.084;2024-01-15T02:04:15;101633.38;;;2.68;100.00
64192;BME280;50497;50.720;-2.084;2024-01-15T02:06:41;101649.25;;;2.74;100.00
64192;BME280;50497;50.720;-2.084;2024-01-15T02:09:07;101648.38;;;2.66;100.00
64192;BME280;50497;50.720;-2.084;2024-01-15T02:11:33;101646.59;;;2.62;100.00
64192;BME280;50497;50.720;-2.084;2024-01-15T02:13:59;101639.56;;;2.63;100.00
64192;BME280;50497;50.720;-2.084;2024-01-15T02:16:24;101640.44;;;2.60;100.00
64192;BME280;50497;50.720;-2.084;2024-01-15T02:18:50;101630.75;;;2.54;100.00
64192;BME280;50497;50.720;-2.084;2024-01-15T02:21:15;101638.66;;;2.47;100.00
64192;BME280;50497;50.720;-2.084;2024-01-15T02:23:41;101634.25;;;2.47;100.00
64192;BME280;50497;50.720;-2.084;2024-01-15T02:26:07;101614.91;;;2.47;100.00
64192;BME280;50497;50.720;-2.084;2024-01-15T02:28:33;101643.09;;;2.49;100.00
64192;BME280;50497;50.720;-2.084;2024-01-15T02:30:59;101614.91;;;2.47;100.00
64192;BME280;50497;50.720;-2.084;2024-01-15T02:33:24;101629.84;;;2.54;100.00
64192;BME280;50497;50.720;-2.084;2024-01-15T02:35:50;101631.63;;;2.58;100.00
64192;BME280;50497;50.720;-2.084;2024-01-15T02:38:16;101636.03;;;2.57;100.00
64192;BME280;50497;50.720;-2.084;2024-01-15T02:40:43;101626.34;;;2.52;100.00
64192;BME280;50497;50.720;-2.084;2024-01-15T02:43:09;101642.19;;;2.55;100.00
64192;BME280;50497;50.720;-2.084;2024-01-15T02:45:34;101619.31;;;2.48;100.00
64192;BME280;50497;50.720;-2.084;2024-01-15T02:48:00;101631.63;;;2.58;100.00
64192;BME280;50497;50.720;-2.084;2024-01-15T02:50:25;101633.41;;;2.54;100.00
64192;BME280;50497;50.720;-2.084;2024-01-15T02:52:51;101636.91;;;2.52;100.00
64192;BME280;50497;50.720;-2.084;2024-01-15T02:55:16;101621.06;;;2.43;100.00
64192;BME280;50497;50.720;-2.084;2024-01-15T02:57:42;101624.59;;;2.42;100.00
64192;BME280;50497;50.720;-2.084;2024-01-15T03:00:07;101625.47;;;2.44;100.00
64192;BME280;50497;50.720;-2.084;2024-01-15T03:02:36;101625.47;;;2.47;100.00
64192;BME280;50497;50.720;-2.084;2024-01-15T03:05:04;101628.09;;;2.40;100.00
64192;BME280;50497;50.720;-2.084;2024-01-15T03:07:29;101615.78;;;2.36;100.00
64192;BME280;50497;50.720;-2.084;2024-01-15T03:09:55;101625.47;;;2.37;100.00
64192;BME280;50497;50.720;-2.084;2024-01-15T03:12:20;101625.47;;;2.33;100.00
64192;BME280;50497;50.720;-2.084;2024-01-15T03:14:46;101624.56;;;2.37;100.00
64192;BME280;50497;50.720;-2.084;2024-01-15T03:17:11;101628.97;;;2.33;100.00
64192;BME280;50497;50.720;-2.084;2024-01-15T03:19:37;101634.28;;;2.41;100.00
64192;BME280;50497;50.720;-2.084;2024-01-15T03:22:03;101627.22;;;2.43;100.00
64192;BME280;50497;50.720;-2.084;2024-01-15T03:24:29;101639.53;;;2.35;100.00
64192;BME280;50497;50.720;-2.084;2024-01-15T03:26:54;101621.94;;;2.28;100.00
64192;BME280;50497;50.720;-2.084;2024-01-15T03:29:20;101621.06;;;2.35;100.00
64192;BME280;50497;50.720;-2.084;2024-01-15T03:31:45;101610.47;;;2.30;100.00
64192;BME280;50497;50.720;-2.084;2024-01-15T03:34:11;101608.72;;;2.35;100.00
64192;BME280;50497;50.720;-2.084;2024-01-15T03:36:36;101624.56;;;2.35;100.00
64192;BME280;50497;50.720;-2.084;2024-01-15T03:39:01;101620.16;;;2.39;100.00
64192;BME280;50497;50.720;-2.084;2024-01-15T03:41:27;101614.00;;;2.42;100.00
64192;BME280;50497;50.720;-2.084;2024-01-15T03:43:52;101614.03;;;2.48;100.00
64192;BME280;50497;50.720;-2.084;2024-01-15T03:46:18;101606.09;;;2.46;100.00
64192;BME280;50497;50.720;-2.084;2024-01-15T03:48:43;101599.94;;;2.43;100.00
64192;BME280;50497;50.720;-2.084;2024-01-15T03:51:08;101593.75;;;2.44;100.00
64192;BME280;50497;50.720;-2.084;2024-01-15T03:53:34;101607.84;;;2.49;100.00
64192;BME280;50497;50.720;-2.084;2024-01-15T03:55:59;101605.22;;;2.41;100.00
64192;BME280;50497;50.720;-2.084;2024-01-15T03:58:24;101600.81;;;2.43;100.00
64192;BME280;50497;50.720;-2.084;2024-01-15T04:00:50;101612.25;;;2.44;100.00
64192;BME280;50497;50.720;-2.084;2024-01-15T04:03:15;101609.59;;;2.40;100.00
64192;BME280;50497;50.720;-2.084;2024-01-15T04:05:41;101605.22;;;2.39;100.00
64192;BME280;50497;50.720;-2.084;2024-01-15T04:08:06;101599.06;;;2.34;100.00
64192;BME280;50497;50.720;-2.084;2024-01-15T04:10:32;101600.81;;;2.21;100.00
64192;BME280;50497;50.720;-2.084;2024-01-15T04:12:57;101598.16;;;2.25;100.00
64192;BME280;50497;50.720;-2.084;2024-01-15T04:15:24;101595.53;;;2.21;100.00
64192;BME280;50497;50.720;-2.084;2024-01-15T04:17:51;101584.06;;;2.13;100.00
64192;BME280;50497;50.720;-2.084;2024-01-15T04:20:17;101591.09;;;2.17;100.00
64192;BME280;50497;50.720;-2.084;2024-01-15T04:22:43;101579.66;;;2.14;100.00
64192;BME280;50497;50.720;-2.084;2024-01-15T04:25:09;101595.53;;;2.23;100.00
64192;BME280;50497;50.720;-2.084;2024-01-15T04:27:34;101596.38;;;2.20;100.00
64192;BME280;50497;50.720;-2.084;2024-01-15T04:30:00;101592.00;;;2.13;100.00
64192;BME280;50497;50.720;-2.084;2024-01-15T04:32:25;101592.91;;;2.26;100.00
64192;BME280;50497;50.720;-2.084;2024-01-15T04:34:51;101592.91;;;2.29;100.00
64192;BME280;50497;50.720;-2.084;2024-01-15T04:37:16;101592.88;;;2.21;100.00
64192;BME280;50497;50.720;-2.084;2024-01-15T04:39:41;101594.63;;;2.27;100.00
64192;BME280;50497;50.720;-2.084;2024-01-15T04:42:07;101577.94;;;2.16;100.00
64192;BME280;50497;50.720;-2.084;2024-01-15T04:44:32;101591.09;;;2.03;100.00
64192;BME280;50497;50.720;-2.084;2024-01-15T04:46:58;101587.56;;;1.92;100.00
64192;BME280;50497;50.720;-2.084;2024-01-15T04:49:23;101591.97;;;1.93;100.00
64192;BME280;50497;50.720;-2.084;2024-01-15T04:51:51;101596.31;;;1.74;100.00
64192;BME280;50497;50.720;-2.084;2024-01-15T04:54:17;101596.31;;;1.70;100.00
64192;BME280;50497;50.720;-2.084;2024-01-15T04:56:43;101599.78;;;1.62;100.00
64192;BME280;50497;50.720;-2.084;2024-01-15T04:59:10;101601.53;;;1.56;100.00
64192;BME280;50497;50.720;-2.084;2024-01-15T05:01:35;101595.31;;;1.44;100.00
64192;BME280;50497;50.720;-2.084;2024-01-15T05:04:01;101600.59;;;1.37;100.00
64192;BME280;50497;50.720;-2.084;2024-01-15T05:06:26;101597.88;;;1.24;100.00
64192;BME280;50497;50.720;-2.084;2024-01-15T05:08:51;101593.38;;;1.03;100.00
64192;BME280;50497;50.720;-2.084;2024-01-15T05:11:17;101606.53;;;1.00;100.00
64192;BME280;50497;50.720;-2.084;2024-01-15T05:13:42;101574.72;;;0.69;100.00
64192;BME280;50497;50.720;-2.084;2024-01-15T05:16:08;101613.47;;;0.84;100.00
64192;BME280;50497;50.720;-2.084;2024-01-15T05:18:33;101613.44;;;0.78;100.00
64192;BME280;50497;50.720;-2.084;2024-01-15T05:20:59;101615.09;;;0.65;100.00
64192;BME280;50497;50.720;-2.084;2024-01-15T05:23:24;101600.94;;;0.52;100.00
64192;BME280;50497;50.720;-2.084;2024-01-15T05:25:49;101608.00;;;0.57;100.00
64192;BME280;50497;50.720;-2.084;2024-01-15T05:28:15;101604.41;;;0.44;100.00
64192;BME280;50497;50.720;-2.084;2024-01-15T05:30:40;101600.81;;;0.37;100.00
64192;BME280;50497;50.720;-2.084;2024-01-15T05:33:06;101619.28;;;0.39;100.00
64192;BME280;50497;50.720;-2.084;2024-01-15T05:35:33;101617.47;;;0.36;100.00
64192;BME280;50497;50.720;-2.084;2024-01-15T05:37:58;101613.06;;;0.32;100.00
64192;BME280;50497;50.720;-2.084;2024-01-15T05:40:24;101615.66;;;0.29;100.00
64192;BME280;50497;50.720;-2.084;2024-01-15T05:42:50;101620.84;;;0.21;100.00
64192;BME280;50497;50.720;-2.084;2024-01-15T05:45:15;101597.94;;;0.09;100.00
64192;BME280;50497;50.720;-2.084;2024-01-15T05:47:41;101591.72;;;0.01;100.00
64192;BME280;50497;50.720;-2.084;2024-01-15T05:50:06;101616.31;;;0.06;100.00
64192;BME280;50497;50.720;-2.084;2024-01-15T05:52:32;101610.06;;;-0.05;100.00
64192;BME280;50497;50.720;-2.084;2024-01-15T05:54:57;101621.59;;;0.06;100.00
64192;BME280;50497;50.720;-2.084;2024-01-15T05:57:23;101619.00;;;0.09;100.00
64192;BME280;50497;50.720;-2.084;2024-01-15T05:59:48;101596.91;;;-0.05;100.00
64192;BME280;50497;50.720;-2.084;2024-01-15T06:02:14;101627.81;;;0.16;100.00
64192;BME280;50497;50.720;-2.084;2024-01-15T06:04:39;101619.03;;;0.14;100.00
64192;BME280;50497;50.720;-2.084;2024-01-15T06:07:05;101629.50;;;0.09;100.00
64192;BME280;50497;50.720;-2.084;2024-01-15T06:09:30;101626.78;;;0.02;100.00
64192;BME280;50497;50.720;-2.084;2024-01-15T06:11:56;101627.59;;;-0.06;100.00
64192;BME280;50497;50.720;-2.084;2024-01-15T06:14:22;101624.03;;;-0.11;100.00
64192;BME280;50497;50.720;-2.084;2024-01-15T06:16:47;101629.22;;;-0.17;100.00
64192;BME280;50497;50.720;-2.084;2024-01-15T06:19:12;101609.78;;;-0.34;100.00
64192;BME280;50497;50.720;-2.084;2024-01-15T06:21:38;101624.66;;;-0.36;100.00
64192;BME280;50497;50.720;-2.084;2024-01-15T06:24:03;101628.97;;;-0.40;100.00
64192;BME280;50497;50.720;-2.084;2024-01-15T06:26:29;101632.41;;;-0.46;100.00
64192;BME280;50497;50.720;-2.084;2024-01-15T06:28:54;101604.94;;;-0.71;100.00
64192;BME280;50497;50.720;-2.084;2024-01-15T06:31:20;101641.88;;;-0.59;100.00
64192;BME280;50497;50.720;-2.084;2024-01-15T06:33:46;101624.19;;;-0.72;100.00
64192;BME280;50497;50.720;-2.084;2024-01-15T06:36:13;101640.91;;;-0.67;100.00
64192;BME280;50497;50.720;-2.084;2024-01-15T06:38:39;101636.34;;;-0.80;100.00
64192;BME280;50497;50.720;-2.084;2024-01-15T06:41:04;101637.31;;;-0.73;100.00
64192;BME280;50497;50.720;-2.084;2024-01-15T06:43:30;101613.53;;;-0.84;100.00
64192;BME280;50497;50.720;-2.084;2024-01-15T06:45:55;101633.72;;;-0.80;100.00
64192;BME280;50497;50.720;-2.084;2024-01-15T06:48:21;101632.81;;;-0.82;100.00
64192;BME280;50497;50.720;-2.084;2024-01-15T06:50:46;101625.78;;;-0.83;100.00
64192;BME280;50497;50.720;-2.084;2024-01-15T06:53:11;101632.97;;;-0.70;100.00
64192;BME280;50497;50.720;-2.084;2024-01-15T06:55:38;101636.38;;;-0.77;100.00
64192;BME280;50497;50.720;-2.084;2024-01-15T06:58:03;101639.84;;;-0.81;100.00
64192;BME280;50497;50.720;-2.084;2024-01-15T07:00:29;101640.53;;;-0.93;100.00
64192;BME280;50497;50.720;-2.084;2024-01-15T07:02:54;101625.56;;;-0.99;100.00
64192;BME280;50497;50.720;-2.084;2024-01-15T07:05:20;101646.69;;;-0.93;100.00
64192;BME280;50497;50.720;-2.084;2024-01-15T07:07:46;101631.63;;;-1.06;100.00
64192;BME280;50497;50.720;-2.084;2024-01-15T07:10:13;101639.44;;;-1.09;100.00
64192;BME280;50497;50.720;-2.084;2024-01-15T07:12:38;101640.97;;;-1.23;100.00
64192;BME280;50497;50.720;-2.084;2024-01-15T07:15:04;101640.16;;;-1.19;100.00
64192;BME280;50497;50.720;-2.084;2024-01-15T07:17:32;101633.81;;;-1.34;100.00
64192;BME280;50497;50.720;-2.084;2024-01-15T07:19:57;101639.06;;;-1.34;100.00
64192;BME280;50497;50.720;-2.084;2024-01-15T07:22:23;101637.31;;;-1.33;100.00
64192;BME280;50497;50.720;-2.084;2024-01-15T07:24:48;101634.50;;;-1.45;100.00
64192;BME280;50497;50.720;-2.084;2024-01-15T07:27:13;101656.53;;;-1.36;100.00
64192;BME280;50497;50.720;-2.084;2024-01-15T07:29:39;101654.66;;;-1.43;100.00
64192;BME280;50497;50.720;-2.084;2024-01-15T07:32:05;101661.56;;;-1.48;100.00
64192;BME280;50497;50.720;-2.084;2024-01-15T07:34:30;101643.03;;;-1.59;100.00
64192;BME280;50497;50.720;-2.084;2024-01-15T07:36:57;101657.03;;;-1.58;100.00
64192;BME280;50497;50.720;-2.084;2024-01-15T07:39:23;101661.44;;;-1.57;100.00
64192;BME280;50497;50.720;-2.084;2024-01-15T07:41:50;101645.50;;;-1.67;100.00
64192;BME280;50497;50.720;-2.084;2024-01-15T07:44:15;101647.16;;;-1.72;100.00
64192;BME280;50497;50.720;-2.084;2024-01-15T07:46:45;101670.97;;;-1.62;100.00
64192;BME280;50497;50.720;-2.084;2024-01-15T07:49:11;101676.41;;;-1.50;100.00
64192;BME280;50497;50.720;-2.084;2024-01-15T07:51:36;101679.88;;;-1.53;100.00
64192;BME280;50497;50.720;-2.084;2024-01-15T07:54:02;101678.28;;;-1.44;100.00
64192;BME280;50497;50.720;-2.084;2024-01-15T07:56:27;101667.09;;;-1.33;100.00
64192;BME280;50497;50.720;-2.084;2024-01-15T07:58:53;101682.78;;;-1.36;100.00
64192;BME280;50497;50.720;-2.084;2024-01-15T08:01:18;101681.78;;;-1.44;100.00
64192;BME280;50497;50.720;-2.084;2024-01-15T08:03:44;101683.53;;;-1.41;100.00
64192;BME280;50497;50.720;-2.084;2024-01-15T08:06:09;101686.13;;;-1.46;100.00
64192;BME280;50497;50.720;-2.084;2024-01-15T08:08:36;101679.03;;;-1.50;100.00
64192;BME280;50497;50.720;-2.084;2024-01-15T08:11:01;101691.25;;;-1.52;100.00
64192;BME280;50497;50.720;-2.084;2024-01-15T08:13:27;101686.03;;;-1.51;100.00
64192;BME280;50497;50.720;-2.084;2024-01-15T08:15:53;101698.31;;;-1.48;100.00
64192;BME280;50497;50.720;-2.084;2024-01-15T08:18:18;101699.97;;;-1.53;100.00
64192;BME280;50497;50.720;-2.084;2024-01-15T08:20:44;101706.75;;;-1.64;100.00
64192;BME280;50497;50.720;-2.084;2024-01-15T08:23:09;101689.06;;;-1.76;100.00
64192;BME280;50497;50.720;-2.084;2024-01-15T08:25:34;101710.13;;;-1.72;100.00
64192;BME280;50497;50.720;-2.084;2024-01-15T08:28:00;101707.38;;;-1.78;100.00
64192;BME280;50497;50.720;-2.084;2024-01-15T08:30:25;101714.34;;;-1.80;100.00
64192;BME280;50497;50.720;-2.084;2024-01-15T08:32:56;101687.94;;;-1.91;100.00
64192;BME280;50497;50.720;-2.084;2024-01-15T08:35:22;101710.78;;;-1.83;100.00
64192;BME280;50497;50.720;-2.084;2024-01-15T08:37:51;101688.66;;;-1.98;100.00
64192;BME280;50497;50.720;-2.084;2024-01-15T08:40:16;101700.88;;;-1.98;100.00
64192;BME280;50497;50.720;-2.084;2024-01-15T08:42:42;101707.22;;;-1.87;100.00
64192;BME280;50497;50.720;-2.084;2024-01-15T08:45:08;101683.34;;;-2.02;100.00
64192;BME280;50497;50.720;-2.084;2024-01-15T08:47:34;101712.50;;;-1.86;100.00
64192;BME280;50497;50.720;-2.084;2024-01-15T08:50:00;101721.38;;;-1.79;100.00
64192;BME280;50497;50.720;-2.084;2024-01-15T08:52:26;101717.84;;;-1.81;100.00
64192;BME280;50497;50.720;-2.084;2024-01-15T08:54:51;101708.28;;;-1.77;100.00
64192;BME280;50497;50.720;-2.084;2024-01-15T08:57:17;101711.91;;;-1.71;100.00
64192;BME280;50497;50.720;-2.084;2024-01-15T08:59:42;101726.13;;;-1.59;100.00
64192;BME280;50497;50.720;-2.084;2024-01-15T09:02:08;101734.06;;;-1.55;100.00
64192;BME280;50497;50.720;-2.084;2024-01-15T09:04:34;101738.56;;;-1.49;100.00
64192;BME280;50497;50.720;-2.084;2024-01-15T09:06:59;101738.66;;;-1.43;100.00
64192;BME280;50497;50.720;-2.084;2024-01-15T09:09:25;101721.84;;;-1.54;100.00
64192;BME280;50497;50.720;-2.084;2024-01-15T09:11:51;101743.88;;;-1.46;100.00
64192;BME280;50497;50.720;-2.084;2024-01-15T09:14:17;101720.94;;;-1.55;100.00
64192;BME280;50497;50.720;-2.084;2024-01-15T09:16:42;101720.09;;;-1.54;100.00
64192;BME280;50497;50.720;-2.084;2024-01-15T09:19:08;101732.56;;;-1.42;100.00
64192;BME280;50497;50.720;-2.084;2024-01-15T09:21:33;101729.09;;;-1.41;100.00
64192;BME280;50497;50.720;-2.084;2024-01-15T09:23:59;101724.63;;;-1.45;100.00
64192;BME280;50497;50.720;-2.084;2024-01-15T09:26:24;101739.63;;;-1.38;100.00
64192;BME280;50497;50.720;-2.084;2024-01-15T09:28:50;101731.78;;;-1.35;100.00
64192;BME280;50497;50.720;-2.084;2024-01-15T09:31:15;101759.13;;;-1.23;100.00
64192;BME280;50497;50.720;-2.084;2024-01-15T09:33:42;101768.84;;;-1.19;100.00
64192;BME280;50497;50.720;-2.084;2024-01-15T09:36:08;101754.88;;;-1.15;100.00
64192;BME280;50497;50.720;-2.084;2024-01-15T09:38:33;101738.13;;;-1.23;100.00
64192;BME280;50497;50.720;-2.084;2024-01-15T09:40:59;101752.34;;;-1.10;100.00
64192;BME280;50497;50.720;-2.084;2024-01-15T09:43:24;101742.63;;;-1.15;100.00
64192;BME280;50497;50.720;-2.084;2024-01-15T09:45:50;101755.13;;;-1.03;100.00
64192;BME280;50497;50.720;-2.084;2024-01-15T09:48:17;101753.38;;;-1.01;100.00
64192;BME280;50497;50.720;-2.084;2024-01-15T09:50:42;101765.78;;;-0.92;100.00
64192;BME280;50497;50.720;-2.084;2024-01-15T09:53:09;101745.84;;;-0.79;100.00
64192;BME280;50497;50.720;-2.084;2024-01-15T09:55:36;101749.53;;;-0.68;100.00
64192;BME280;50497;50.720;-2.084;2024-01-15T09:58:03;101765.63;;;-0.46;100.00
64192;BME280;50497;50.720;-2.084;2024-01-15T10:00:29;101767.50;;;-0.38;100.00
64192;BME280;50497;50.720;-2.084;2024-01-15T10:02:58;101768.53;;;-0.26;100.00
64192;BME280;50497;50.720;-2.084;2024-01-15T10:05:26;101769.56;;;-0.15;100.00
64192;BME280;50497;50.720;-2.084;2024-01-15T10:07:53;101778.34;;;-0.13;100.00
64192;BME280;50497;50.720;-2.084;2024-01-15T10:10:19;101756.66;;;0.08;100.00
64192;BME280;50497;50.720;-2.084;2024-01-15T10:12:47;101755.88;;;0.14;100.00
64192;BME280;50497;50.720;-2.084;2024-01-15T10:15:12;101762.31;;;0.39;100.00
64192;BME280;50497;50.720;-2.084;2024-01-15T10:17:38;101764.03;;;0.37;100.00
64192;BME280;50497;50.720;-2.084;2024-01-15T10:20:11;101772.41;;;0.83;100.00
64192;BME280;50497;50.720;-2.084;2024-01-15T10:22:41;101769.88;;;0.96;100.00
64192;BME280;50497;50.720;-2.084;2024-01-15T10:25:10;101768.09;;;0.90;100.00
64192;BME280;50497;50.720;-2.084;2024-01-15T10:27:36;101757.69;;;1.07;100.00
64192;BME280;50497;50.720;-2.084;2024-01-15T10:30:01;101771.97;;;1.37;100.00
64192;BME280;50497;50.720;-2.084;2024-01-15T10:32:28;101785.31;;;1.60;100.00
64192;BME280;50497;50.720;-2.084;2024-01-15T10:34:54;101787.47;;;2.41;100.00
64192;BME280;50497;50.720;-2.084;2024-01-15T10:37:19;101783.97;;;3.88;100.00
64192;BME280;50497;50.720;-2.084;2024-01-15T10:39:46;101809.88;;;4.98;100.00
64192;BME280;50497;50.720;-2.084;2024-01-15T10:42:11;101824.38;;;5.65;100.00
64192;BME280;50497;50.720;-2.084;2024-01-15T10:44:37;101823.44;;;6.52;100.00
64192;BME280;50497;50.720;-2.084;2024-01-15T10:47:03;101828.47;;;6.73;100.00
64192;BME280;50497;50.720;-2.084;2024-01-15T10:49:29;101834.41;;;6.24;100.00
64192;BME280;50497;50.720;-2.084;2024-01-15T10:51:56;101852.72;;;5.65;100.00
64192;BME280;50497;50.720;-2.084;2024-01-15T10:54:23;101855.75;;;6.18;100.00
64192;BME280;50497;50.720;-2.084;2024-01-15T10:56:50;101896.91;;;5.70;100.00
64192;BME280;50497;50.720;-2.084;2024-01-15T10:59:16;101910.59;;;6.26;100.00
64192;BME280;50497;50.720;-2.084;2024-01-15T11:01:42;102035.16;;;5.41;100.00
64192;BME280;50497;50.720;-2.084;2024-01-15T11:04:09;102092.09;;;6.39;100.00
64192;BME280;50497;50.720;-2.084;2024-01-15T11:06:45;102220.81;;;5.86;100.00
64192;BME280;50497;50.720;-2.084;2024-01-15T11:09:14;102318.25;;;5.59;100.00
64192;BME280;50497;50.720;-2.084;2024-01-15T11:11:44;102383.63;;;6.40;100.00
64192;BME280;50497;50.720;-2.084;2024-01-15T11:14:10;102487.38;;;6.09;100.00
64192;BME280;50497;50.720;-2.084;2024-01-15T11:16:55;102536.94;;;6.32;100.00
64192;BME280;50497;50.720;-2.084;2024-01-15T11:19:36;102542.25;;;6.64;100.00
64192;BME280;50497;50.720;-2.084;2024-01-15T11:22:02;102567.97;;;6.52;100.00
64192;BME280;50497;50.720;-2.084;2024-01-15T11:24:40;102583.91;;;6.08;100.00
64192;BME280;50497;50.720;-2.084;2024-01-15T11:27:07;102594.56;;;6.25;100.00
64192;BME280;50497;50.720;-2.084;2024-01-15T11:29:36;102565.13;;;7.13;100.00
64192;BME280;50497;50.720;-2.084;2024-01-15T11:32:03;102592.78;;;6.57;100.00
64192;BME280;50497;50.720;-2.084;2024-01-15T11:34:58;102608.75;;;6.47;100.00
64192;BME280;50497;50.720;-2.084;2024-01-15T11:37:26;102590.09;;;6.74;100.00
64192;BME280;50497;50.720;-2.084;2024-01-15T11:39:54;102596.84;;;7.70;100.00
64192;BME280;50497;50.720;-2.084;2024-01-15T11:42:21;102618.47;;;6.84;100.00
64192;BME280;50497;50.720;-2.084;2024-01-15T11:44:47;102594.72;;;8.22;100.00
64192;BME280;50497;50.720;-2.084;2024-01-15T11:47:13;102577.50;;;8.61;100.00
64192;BME280;50497;50.720;-2.084;2024-01-15T11:50:00;102578.00;;;8.00;100.00
64192;BME280;50497;50.720;-2.084;2024-01-15T11:52:37;102569.44;;;7.45;100.00
64192;BME280;50497;50.720;-2.084;2024-01-15T11:55:19;102542.41;;;8.07;100.00
64192;BME280;50497;50.720;-2.084;2024-01-15T11:57:54;102550.00;;;7.31;100.00
64192;BME280;50497;50.720;-2.084;2024-01-15T12:00:20;102583.03;;;6.42;100.00
64192;BME280;50497;50.720;-2.084;2024-01-15T12:02:47;102612.28;;;6.37;100.00
64192;BME280;50497;50.720;-2.084;2024-01-15T12:05:14;102606.06;;;6.60;100.00
64192;BME280;50497;50.720;-2.084;2024-01-15T12:07:41;102614.84;;;5.83;100.00
64192;BME280;50497;50.720;-2.084;2024-01-15T12:10:14;102549.28;;;6.84;100.00
64192;BME280;50497;50.720;-2.084;2024-01-15T12:13:00;102551.69;;;7.47;100.00
64192;BME280;50497;50.720;-2.084;2024-01-15T12:15:28;102581.75;;;7.68;100.00
64192;BME280;50497;50.720;-2.084;2024-01-15T12:17:58;102596.91;;;7.55;100.00
64192;BME280;50497;50.720;-2.084;2024-01-15T12:20:25;102610.19;;;7.69;100.00
64192;BME280;50497;50.720;-2.084;2024-01-15T12:22:51;102627.31;;;6.84;100.00
64192;BME280;50497;50.720;-2.084;2024-01-15T12:25:16;102632.56;;;5.92;100.00
64192;BME280;50497;50.720;-2.084;2024-01-15T12:27:42;102606.78;;;5.52;100.00
64192;BME280;50497;50.720;-2.084;2024-01-15T12:30:11;102597.88;;;5.36;100.00
64192;BME280;50497;50.720;-2.084;2024-01-15T12:32:37;102587.16;;;5.12;100.00